createdAt,value
2023-01-19T00:00:28.208Z,100048.28
2023-01-19T00:02:55.004Z,100048.81
2023-01-19T00:05:22.074Z,100045.03
2023-01-19T00:07:48.585Z,100046.13
2023-01-19T00:10:15.149Z,100048.00
2023-01-19T00:12:41.614Z,100058.41
2023-01-19T00:15:08.713Z,100060.28
2023-01-19T00:17:35.274Z,100052.84
2023-01-19T00:20:01.897Z,100051.78
2023-01-19T00:22:28.359Z,100049.41
2023-01-19T00:24:54.833Z,100052.06
2023-01-19T00:27:21.291Z,100059.31
2023-01-19T00:29:47.768Z,100057.41
2023-01-19T00:32:14.373Z,100045.34
2023-01-19T00:34:49.646Z,100059.19
2023-01-19T00:37:17.053Z,100055.72
2023-01-19T00:39:43.848Z,100050.53
2023-01-19T00:42:32.508Z,100044.41
2023-01-19T00:44:59.093Z,100047.56
2023-01-19T00:47:25.854Z,100059.34
2023-01-19T00:49:52.372Z,100051.31
2023-01-19T00:52:19.632Z,100058.56
2023-01-19T00:54:46.139Z,100048.66
2023-01-19T00:57:12.687Z,100043.31
2023-01-19T00:59:39.238Z,100044.41
2023-01-19T01:02:05.978Z,100040.47
2023-01-19T01:04:32.631Z,100027.88
2023-01-19T01:06:59.089Z,100046.13
2023-01-19T01:09:25.609Z,100041.56
2023-01-19T01:11:52.079Z,100041.56
2023-01-19T01:14:19.353Z,100036.34
2023-01-19T01:16:46.145Z,100043.09
2023-01-19T01:19:12.609Z,100035.06
2023-01-19T01:21:39.272Z,100043.25
2023-01-19T01:24:06.101Z,100055.25
2023-01-19T01:26:32.591Z,100053.97
2023-01-19T01:28:59.132Z,100072.31
2023-01-19T01:31:26.016Z,100070.41
2023-01-19T01:33:52.586Z,100060.13
2023-01-19T01:36:19.268Z,100074.69
2023-01-19T01:38:45.787Z,100067.72
2023-01-19T01:41:12.424Z,100068.56
2023-01-19T01:43:51.590Z,100089.06
2023-01-19T01:46:18.459Z,100069.41
2023-01-19T01:48:54.919Z,100071.38
2023-01-19T01:51:47.061Z,100076.22
2023-01-19T01:54:21.588Z,100077.31
2023-01-19T01:56:51.215Z,100071.38
2023-01-19T01:59:26.137Z,100067.03
2023-01-19T02:02:14.347Z,100066.09
2023-01-19T02:04:47.462Z,100056.41
2023-01-19T02:07:39.711Z,100067.47
2023-01-19T02:10:25.084Z,100064.66
2023-01-19T02:13:10.496Z,100070.38
2023-01-19T02:15:36.934Z,100074.22
2023-01-19T02:18:03.858Z,100074.38
2023-01-19T02:20:33.269Z,100064.38
2023-01-19T02:23:03.730Z,100070.09
2023-01-19T02:25:30.701Z,100069.53
2023-01-19T02:27:57.290Z,100075.72
2023-01-19T02:30:24.206Z,100077.53
2023-01-19T02:32:50.685Z,100081.81
2023-01-19T02:35:17.339Z,100077.41
2023-01-19T02:37:44.967Z,100088.00
2023-01-19T02:40:14.997Z,100096.38
2023-01-19T02:42:48.473Z,100091.19
2023-01-19T02:45:19.876Z,100091.03
2023-01-19T02:47:49.285Z,100109.44
2023-01-19T02:50:59.502Z,100107.09
2023-01-19T02:53:42.724Z,100106.91
2023-01-19T02:56:36.746Z,100112.88
2023-01-19T02:59:27.167Z,100117.44
2023-01-19T03:02:24.648Z,100122.28
2023-01-19T03:05:11.180Z,100133.81
2023-01-19T03:08:00.075Z,100144.50
2023-01-19T03:10:53.461Z,100139.16
2023-01-19T03:13:40.110Z,100146.38
2023-01-19T03:16:23.823Z,100147.97
2023-01-19T03:19:04.930Z,100136.75
2023-01-19T03:21:36.030Z,100141.31
2023-01-19T03:24:06.297Z,100144.50
2023-01-19T03:26:44.025Z,100146.88
2023-01-19T03:29:14.036Z,100146.88
2023-01-19T03:31:43.416Z,100157.69
2023-01-19T03:34:13.393Z,100152.97
2023-01-19T03:36:44.527Z,100145.84
2023-01-19T03:39:13.945Z,100150.03
2023-01-19T03:41:42.441Z,100153.63
2023-01-19T03:44:09.276Z,100164.66
2023-01-19T03:46:35.888Z,100154.97
2023-01-19T03:49:02.461Z,100159.16
2023-01-19T03:51:29.588Z,100156.44
2023-01-19T03:53:56.130Z,100167.53
2023-01-19T03:56:25.137Z,100161.03
2023-01-19T03:58:51.870Z,100148.56
2023-01-19T04:01:22.925Z,100193.50
2023-01-19T04:03:51.074Z,100188.75
2023-01-19T04:06:18.221Z,100189.06
2023-01-19T04:08:44.761Z,100184.13
2023-01-19T04:11:11.580Z,100197.50
2023-01-19T04:13:38.063Z,100185.22
2023-01-19T04:16:05.784Z,100196.22
2023-01-19T04:18:34.883Z,100188.50
2023-01-19T04:21:07.379Z,100179.97
2023-01-19T04:23:34.450Z,100174.94
2023-01-19T04:26:04.118Z,100180.59
2023-01-19T04:28:31.230Z,100172.88
2023-01-19T04:30:57.897Z,100172.88
2023-01-19T04:33:24.664Z,100170.19
2023-01-19T04:35:54.377Z,100169.41
2023-01-19T04:38:22.601Z,100174.75
2023-01-19T04:40:50.039Z,100177.59
2023-01-19T04:43:17.277Z,100181.06
2023-01-19T04:45:46.585Z,100187.03
2023-01-19T04:48:14.014Z,100191.28
2023-01-19T04:50:41.523Z,100186.41
2023-01-19T04:53:08.721Z,100193.34
2023-01-19T04:55:35.177Z,100191.75
2023-01-19T04:58:01.726Z,100196.81
2023-01-19T05:00:28.228Z,100201.06
2023-01-19T05:02:54.895Z,100190.06
2023-01-19T05:05:21.679Z,100204.22
2023-01-19T05:07:48.175Z,100201.25
2023-01-19T05:10:14.632Z,100208.66
2023-01-19T05:12:42.196Z,100216.88
2023-01-19T05:15:09.688Z,100219.25
2023-01-19T05:17:36.560Z,100224.78
2023-01-19T05:20:04.361Z,100227.66
2023-01-19T05:22:31.070Z,100244.66
2023-01-19T05:24:57.562Z,100247.03
2023-01-19T05:27:24.051Z,100251.50
2023-01-19T05:29:50.473Z,100253.56
2023-01-19T05:32:16.991Z,100239.88
2023-01-19T05:34:43.421Z,100233.84
2023-01-19T05:37:09.944Z,100230.56
2023-01-19T05:39:36.480Z,100237.03
2023-01-19T05:42:04.153Z,100244.72
2023-01-19T05:44:30.714Z,100241.28
2023-01-19T05:46:57.214Z,100238.28
2023-01-19T05:49:23.791Z,100236.72
2023-01-19T05:51:50.236Z,100239.09
2023-01-19T05:54:16.729Z,100246.50
2023-01-19T05:56:43.669Z,100239.78
2023-01-19T05:59:10.921Z,100247.00
2023-01-19T06:01:39.883Z,100243.22
2023-01-19T06:04:06.786Z,100247.50
2023-01-19T06:06:33.347Z,100257.88
2023-01-19T06:08:59.848Z,100263.53
2023-01-19T06:11:26.435Z,100261.34
2023-01-19T06:13:52.975Z,100264.00
2023-01-19T06:16:19.558Z,100264.31
2023-01-19T06:18:46.118Z,100269.19
2023-01-19T06:21:14.275Z,100269.97
2023-01-19T06:23:41.343Z,100273.53
2023-01-19T06:26:08.292Z,100277.31
2023-01-19T06:28:34.786Z,100285.31
2023-01-19T06:31:01.801Z,100288.09
2023-01-19T06:33:28.690Z,100292.66
2023-01-19T06:35:55.721Z,100292.16
2023-01-19T06:38:22.488Z,100299.88
2023-01-19T06:41:02.619Z,100299.88
2023-01-19T06:43:29.324Z,100304.16
2023-01-19T06:45:57.183Z,100300.97
2023-01-19T06:48:24.068Z,100308.69
2023-01-19T06:50:50.554Z,100316.22
2023-01-19T06:53:17.608Z,100321.88
2023-01-19T06:55:44.144Z,100331.50
2023-01-19T06:58:11.494Z,100337.63
2023-01-19T07:00:38.535Z,100337.31
2023-01-19T07:03:08.449Z,100339.69
2023-01-19T07:05:36.397Z,100349.81
2023-01-19T07:08:03.936Z,100346.03
2023-01-19T07:11:24.756Z,100350.78
2023-01-19T07:13:17.513Z,100356.44
2023-01-19T07:15:44.097Z,100355.34
2023-01-19T07:18:10.657Z,100357.53
2023-01-19T07:20:38.171Z,100367.44
2023-01-19T07:23:05.081Z,100363.38
2023-01-19T07:25:31.567Z,100377.22
2023-01-19T07:28:01.638Z,100379.09
2023-01-19T07:30:28.693Z,100375.66
2023-01-19T07:32:57.515Z,100391.69
2023-01-19T07:35:24.857Z,100393.16
2023-01-19T07:37:51.395Z,100392.19
2023-01-19T07:40:18.031Z,100402.97
2023-01-19T07:42:49.204Z,100397.84
2023-01-19T07:45:20.807Z,100406.97
2023-01-19T07:47:49.933Z,100402.41
2023-01-19T07:50:17.732Z,100402.97
2023-01-19T07:52:44.725Z,100407.84
2023-01-19T07:55:11.302Z,100422.28
2023-01-19T07:57:37.788Z,100409.81
2023-01-19T08:00:05.833Z,100417.84
2023-01-19T08:02:34.006Z,100425.16
2023-01-19T08:05:00.447Z,100427.63
2023-01-19T08:07:27.175Z,100430.50
2023-01-19T08:09:53.866Z,100426.94
2023-01-19T08:12:20.461Z,100431.59
2023-01-19T08:14:46.960Z,100444.97
2023-01-19T08:17:14.004Z,100436.16
2023-01-19T08:19:41.675Z,100439.44
2023-01-19T08:22:08.293Z,100445.59
2023-01-19T08:24:34.817Z,100445.06
2023-01-19T08:27:03.557Z,100455.78
2023-01-19T08:29:33.763Z,100455.28
2023-01-19T08:32:02.195Z,100458.34
2023-01-19T08:34:31.037Z,100465.59
2023-01-19T08:36:58.296Z,100451.94
2023-01-19T08:39:25.137Z,100463.13
2023-01-19T08:41:52.500Z,100463.13
2023-01-19T08:44:19.034Z,100476.81
2023-01-19T08:46:45.528Z,100477.88
2023-01-19T08:49:12.098Z,100492.16
2023-01-19T08:51:38.663Z,100491.47
2023-01-19T08:54:05.277Z,100502.84
2023-01-19T08:56:32.512Z,100504.03
2023-01-19T08:59:08.724Z,100505.66
2023-01-19T09:01:37.337Z,100501.66
2023-01-19T09:04:04.034Z,100511.97
2023-01-19T09:06:30.610Z,100505.75
2023-01-19T09:08:57.776Z,100503.44
2023-01-19T09:11:24.469Z,100510.19
2023-01-19T09:13:51.271Z,100505.72
2023-01-19T09:16:18.045Z,100504.22
2023-01-19T09:18:45.969Z,100511.25
2023-01-19T09:21:13.764Z,100512.63
2023-01-19T09:23:40.423Z,100517.28
2023-01-19T09:26:07.368Z,100516.56
2023-01-19T09:28:34.196Z,100517.81
2023-01-19T09:31:05.306Z,100528.44
2023-01-19T09:33:31.839Z,100522.47
2023-01-19T09:35:58.510Z,100521.38
2023-01-19T09:38:25.907Z,100518.88
2023-01-19T09:40:56.001Z,100519.06
2023-01-19T09:43:34.716Z,100530.97
2023-01-19T09:46:15.303Z,100525.59
2023-01-19T09:48:52.163Z,100530.41
2023-01-19T09:51:24.111Z,100535.47
2023-01-19T09:54:02.275Z,100540.50
2023-01-19T09:56:31.085Z,100547.66
2023-01-19T09:58:59.128Z,100545.16
2023-01-19T10:01:46.768Z,100553.41
2023-01-19T10:04:24.589Z,100549.69
2023-01-19T10:06:59.457Z,100554.91
2023-01-19T10:09:38.925Z,100558.75
2023-01-19T10:12:18.445Z,100549.47
2023-01-19T10:14:53.029Z,100550.94
2023-01-19T10:17:46.239Z,100561.69
2023-01-19T10:20:33.416Z,100563.09
2023-01-19T10:23:00.929Z,100565.19
2023-01-19T10:25:28.002Z,100560.78
2023-01-19T10:27:54.523Z,100564.16
2023-01-19T10:30:27.904Z,100567.78
2023-01-19T10:32:54.530Z,100565.56
2023-01-19T10:35:26.829Z,100563.09
2023-01-19T10:37:58.518Z,100568.31
2023-01-19T10:40:31.108Z,100562.81
2023-01-19T10:42:58.467Z,100571.69
2023-01-19T10:45:30.056Z,100567.59
2023-01-19T10:48:06.168Z,100567.00
2023-01-19T10:50:35.118Z,100564.16
2023-01-19T10:53:04.731Z,100561.94
2023-01-19T10:55:33.559Z,100565.59
2023-01-19T10:58:01.239Z,100564.19
2023-01-19T11:00:39.065Z,100575.41
2023-01-19T11:03:23.212Z,100576.69
2023-01-19T11:05:50.275Z,100570.56
2023-01-19T11:08:44.266Z,100571.97
2023-01-19T11:11:12.487Z,100573.09
2023-01-19T11:13:43.605Z,100574.84
2023-01-19T11:16:29.141Z,100569.47
2023-01-19T11:18:57.189Z,100576.75
2023-01-19T11:21:29.124Z,100576.09
2023-01-19T11:23:59.019Z,100572.78
2023-01-19T11:26:27.661Z,100571.41
2023-01-19T11:28:56.569Z,100571.41
2023-01-19T11:31:28.866Z,100576.78
2023-01-19T11:33:58.349Z,100564.13
2023-01-19T11:36:30.373Z,100570.44
2023-01-19T11:38:59.962Z,100575.22
2023-01-19T11:41:29.724Z,100575.03
2023-01-19T11:44:14.606Z,100579.13
2023-01-19T11:46:44.385Z,100572.94
2023-01-19T11:49:38.495Z,100569.81
2023-01-19T11:52:28.282Z,100579.94
2023-01-19T11:55:01.627Z,100574.88
2023-01-19T11:57:28.206Z,100574.41
2023-01-19T11:59:55.343Z,100571.50
2023-01-19T12:02:29.239Z,100579.22
2023-01-19T12:05:04.845Z,100579.13
2023-01-19T12:07:35.834Z,100574.38
2023-01-19T12:10:20.887Z,100570.06
2023-01-19T12:12:47.783Z,100571.22
2023-01-19T12:15:23.143Z,100572.84
2023-01-19T12:17:52.216Z,100580.13
2023-01-19T12:20:40.361Z,100580.44
2023-01-19T12:23:09.636Z,100580.13
2023-01-19T12:25:56.739Z,100584.09
2023-01-19T12:28:30.210Z,100584.25
2023-01-19T12:30:59.039Z,100586.28
2023-01-19T12:33:29.056Z,100591.97
2023-01-19T12:35:58.539Z,100595.91
2023-01-19T12:38:47.701Z,100594.56
2023-01-19T12:41:34.915Z,100589.63
2023-01-19T12:44:19.184Z,100590.75
2023-01-19T12:46:50.631Z,100592.78
2023-01-19T12:49:32.397Z,100593.75
2023-01-19T12:52:19.648Z,100596.28
2023-01-19T12:55:13.417Z,100594.38
2023-01-19T12:57:55.611Z,100594.53
2023-01-19T13:00:22.035Z,100592.81
2023-01-19T13:02:51.329Z,100595.78
2023-01-19T13:05:39.827Z,100594.97
2023-01-19T13:08:06.491Z,100601.00
2023-01-19T13:11:05.455Z,100600.97
2023-01-19T13:13:31.974Z,100598.72
2023-01-19T13:16:18.432Z,100596.22
2023-01-19T13:18:48.403Z,100594.22
2023-01-19T13:21:27.074Z,100590.59
2023-01-19T13:23:56.762Z,100603.22
2023-01-19T13:26:26.598Z,100596.13
2023-01-19T13:29:15.660Z,100594.69
2023-01-19T13:31:44.727Z,100597.25
2023-01-19T13:34:16.817Z,100594.56
2023-01-19T13:36:51.887Z,100591.53
2023-01-19T13:39:30.682Z,100595.66
2023-01-19T13:42:01.972Z,100605.31
2023-01-19T13:44:33.299Z,100606.88
2023-01-19T13:47:03.178Z,100606.84
2023-01-19T13:49:34.063Z,100606.94
2023-01-19T13:52:28.110Z,100596.47
2023-01-19T13:54:57.019Z,100599.50
2023-01-19T13:57:28.327Z,100592.63
2023-01-19T14:00:12.912Z,100592.63
2023-01-19T14:03:01.724Z,100598.25
2023-01-19T14:05:49.328Z,100602.50
2023-01-19T14:08:18.085Z,100599.66
2023-01-19T14:10:46.019Z,100616.78
2023-01-19T14:13:19.870Z,100617.50
2023-01-19T14:15:49.235Z,100615.34
2023-01-19T14:18:18.898Z,100609.72
2023-01-19T14:21:02.034Z,100612.63
2023-01-19T14:24:06.489Z,100614.91
2023-01-19T14:26:46.532Z,100620.22
2023-01-19T14:29:17.638Z,100622.38
2023-01-19T14:31:48.972Z,100627.94
2023-01-19T14:34:45.129Z,100620.50
2023-01-19T14:37:25.811Z,100632.88
2023-01-19T14:40:10.767Z,100630.44
2023-01-19T14:42:44.306Z,100629.31
2023-01-19T14:45:28.690Z,100628.50
2023-01-19T14:47:59.963Z,100639.00
2023-01-19T14:50:36.775Z,100639.78
2023-01-19T14:53:15.583Z,100644.69
2023-01-19T14:55:53.083Z,100635.84
2023-01-19T14:58:21.302Z,100636.00
2023-01-19T15:00:48.820Z,100643.72
2023-01-19T15:03:15.932Z,100633.91
2023-01-19T15:05:45.131Z,100635.84
2023-01-19T15:08:16.764Z,100637.59
2023-01-19T15:10:44.015Z,100641.91
2023-01-19T15:13:20.453Z,100640.75
2023-01-19T15:15:47.158Z,100638.81
2023-01-19T15:18:17.216Z,100649.25
2023-01-19T15:20:43.841Z,100641.91
2023-01-19T15:23:11.287Z,100640.66
2023-01-19T15:25:41.470Z,100646.09
2023-01-19T15:28:17.676Z,100651.59
2023-01-19T15:30:44.632Z,100646.75
2023-01-19T15:33:19.521Z,100653.13
2023-01-19T15:35:46.005Z,100654.25
2023-01-19T15:38:12.445Z,100665.22
2023-01-19T15:40:39.147Z,100651.16
2023-01-19T15:43:05.782Z,100663.25
2023-01-19T15:46:02.437Z,100669.41
2023-01-19T15:48:29.056Z,100681.59
2023-01-19T15:50:55.538Z,100677.16
2023-01-19T15:53:24.111Z,100675.41
2023-01-19T15:55:52.859Z,100689.66
2023-01-19T15:58:20.711Z,100688.56
2023-01-19T16:00:55.328Z,100693.47
2023-01-19T16:03:22.212Z,100688.56
2023-01-19T16:05:48.893Z,100683.97
2023-01-19T16:08:15.968Z,100696.16
2023-01-19T16:10:42.796Z,100691.16
2023-01-19T16:13:11.284Z,100702.19
2023-01-19T16:15:39.560Z,100703.47
2023-01-19T16:18:06.515Z,100705.88
2023-01-19T16:20:33.221Z,100705.56
2023-01-19T16:23:13.561Z,100706.78
2023-01-19T16:25:41.208Z,100709.34
2023-01-19T16:28:08.369Z,100709.66
2023-01-19T16:30:34.974Z,100712.63
2023-01-19T16:33:01.610Z,100718.38
2023-01-19T16:35:28.104Z,100721.25
2023-01-19T16:37:54.575Z,100730.06
2023-01-19T16:40:21.126Z,100729.19
2023-01-19T16:42:47.639Z,100733.88
2023-01-19T16:45:14.238Z,100725.91
2023-01-19T16:47:40.991Z,100734.84
2023-01-19T16:50:11.225Z,100737.22
2023-01-19T16:52:38.426Z,100744.00
2023-01-19T16:55:09.279Z,100747.28
2023-01-19T16:57:36.954Z,100752.66
2023-01-19T17:00:04.199Z,100759.81
2023-01-19T17:02:30.743Z,100760.22
2023-01-19T17:05:00.118Z,100767.47
2023-01-19T17:07:27.774Z,100762.59
2023-01-19T17:09:54.453Z,100752.03
2023-01-19T17:12:20.910Z,100756.44
2023-01-19T17:14:47.602Z,100750.84
2023-01-19T17:17:14.578Z,100758.91
2023-01-19T17:19:41.094Z,100753.78
2023-01-19T17:22:07.651Z,100767.00
2023-01-19T17:24:34.129Z,100775.84
2023-01-19T17:27:00.628Z,100777.63
2023-01-19T17:29:27.182Z,100777.84
2023-01-19T17:31:53.664Z,100781.00
2023-01-19T17:34:20.146Z,100771.28
2023-01-19T17:36:46.648Z,100784.22
2023-01-19T17:39:14.922Z,100781.53
2023-01-19T17:41:41.646Z,100795.31
2023-01-19T17:44:10.357Z,100797.19
2023-01-19T17:46:38.212Z,100792.91
2023-01-19T17:49:06.688Z,100796.47
2023-01-19T17:51:33.756Z,100794.47
2023-01-19T17:54:00.560Z,100798.41
2023-01-19T17:56:30.218Z,100793.13
2023-01-19T17:58:57.844Z,100804.75
2023-01-19T18:01:27.073Z,100797.22
2023-01-19T18:03:56.702Z,100801.16
2023-01-19T18:06:23.877Z,100801.09
2023-01-19T18:08:50.971Z,100807.25
2023-01-19T18:11:20.215Z,100806.94
2023-01-19T18:13:48.872Z,100801.41
2023-01-19T18:16:18.440Z,100798.41
2023-01-19T18:18:44.937Z,100811.31
2023-01-19T18:21:14.050Z,100801.66
2023-01-19T18:23:43.294Z,100808.75
2023-01-19T18:26:11.895Z,100805.47
2023-01-19T18:28:38.472Z,100811.44
2023-01-19T18:31:13.792Z,100824.53
2023-01-19T18:33:40.714Z,100830.44
2023-01-19T18:36:08.116Z,100825.13
2023-01-19T18:38:35.559Z,100830.81
2023-01-19T18:41:06.593Z,100831.81
2023-01-19T18:43:33.584Z,100835.38
2023-01-19T18:46:00.318Z,100827.00
2023-01-19T18:48:26.876Z,100841.47
2023-01-19T18:50:54.048Z,100833.97
2023-01-19T18:53:20.893Z,100828.88
2023-01-19T18:55:59.406Z,100831.63
2023-01-19T18:58:28.563Z,100835.03
2023-01-19T19:00:56.552Z,100834.16
2023-01-19T19:03:23.392Z,100830.47
2023-01-19T19:05:50.181Z,100834.47
2023-01-19T19:08:16.734Z,100845.59
2023-01-19T19:10:44.148Z,100837.63
2023-01-19T19:13:16.590Z,100843.41
2023-01-19T19:15:44.455Z,100842.13
2023-01-19T19:18:13.649Z,100846.09
2023-01-19T19:20:42.016Z,100853.19
2023-01-19T19:23:08.594Z,100859.03
2023-01-19T19:25:35.111Z,100867.28
2023-01-19T19:28:01.590Z,100867.88
2023-01-19T19:30:28.250Z,100868.06
2023-01-19T19:32:56.415Z,100868.50
2023-01-19T19:35:26.217Z,100866.78
2023-01-19T19:37:57.481Z,100871.13
2023-01-19T19:40:26.483Z,100870.75
2023-01-19T19:42:53.127Z,100867.66
2023-01-19T19:45:19.671Z,100866.78
2023-01-19T19:47:46.198Z,100871.53
2023-01-19T19:50:13.130Z,100871.91
2023-01-19T19:52:43.135Z,100874.66
2023-01-19T19:55:10.871Z,100874.34
2023-01-19T19:57:37.658Z,100891.00
2023-01-19T20:00:05.646Z,100892.91
2023-01-19T20:02:32.646Z,100886.53
2023-01-19T20:04:59.267Z,100897.00
2023-01-19T20:07:25.819Z,100896.00
2023-01-19T20:09:53.521Z,100904.66
2023-01-19T20:12:19.979Z,100905.22
2023-01-19T20:14:46.619Z,100910.03
2023-01-19T20:17:13.133Z,100923.91
2023-01-19T20:19:39.650Z,100921.72
2023-01-19T20:22:06.979Z,100929.19
2023-01-19T20:24:33.473Z,100931.09
2023-01-19T20:26:59.996Z,100930.28
2023-01-19T20:29:26.632Z,100929.91
2023-01-19T20:31:55.248Z,100924.16
2023-01-19T20:34:25.155Z,100932.91
2023-01-19T20:36:53.754Z,100931.47
2023-01-19T20:39:22.006Z,100936.78
2023-01-19T20:41:50.851Z,100949.56
2023-01-19T20:44:21.063Z,100945.50
2023-01-19T20:46:48.034Z,100954.94
2023-01-19T20:49:15.092Z,100957.31
2023-01-19T20:51:44.857Z,100958.19
2023-01-19T20:54:12.004Z,100963.31
2023-01-19T20:56:38.832Z,100966.72
2023-01-19T20:59:05.290Z,100968.81
2023-01-19T21:01:31.997Z,100973.88
2023-01-19T21:03:58.581Z,100977.09
2023-01-19T21:06:25.714Z,100979.22
2023-01-19T21:08:52.558Z,100977.16
2023-01-19T21:11:21.071Z,100976.06
2023-01-19T21:13:48.802Z,100975.06
2023-01-19T21:16:15.649Z,100973.03
2023-01-19T21:18:42.287Z,100986.13
2023-01-19T21:21:14.912Z,100990.47
2023-01-19T21:23:47.579Z,100993.94
2023-01-19T21:26:14.682Z,100994.78
2023-01-19T21:28:41.520Z,100998.56
2023-01-19T21:31:13.028Z,101003.88
2023-01-19T21:33:40.693Z,101000.25
2023-01-19T21:36:08.195Z,100998.88
2023-01-19T21:38:37.051Z,100997.78
2023-01-19T21:41:09.666Z,101002.06
2023-01-19T21:43:38.943Z,100998.88
2023-01-19T21:46:13.587Z,100997.78
2023-01-19T21:48:41.599Z,100994.38
2023-01-19T21:51:08.724Z,100990.97
2023-01-19T21:53:35.274Z,100997.72
2023-01-19T21:56:01.768Z,100998.63
2023-01-19T21:58:28.287Z,101008.03
2023-01-19T22:01:05.568Z,101010.50
2023-01-19T22:03:32.296Z,101014.59
2023-01-19T22:06:07.173Z,101009.75
2023-01-19T22:08:34.261Z,101018.97
2023-01-19T22:11:08.885Z,101018.63
2023-01-19T22:13:36.347Z,101027.88
2023-01-19T22:16:04.716Z,101031.06
2023-01-19T22:18:31.276Z,101031.09
2023-01-19T22:21:07.760Z,101029.56
2023-01-19T22:23:34.418Z,101034.06
2023-01-19T22:26:00.914Z,101030.50
2023-01-19T22:28:27.365Z,101035.84
2023-01-19T22:30:53.887Z,101034.84
2023-01-19T22:33:20.390Z,101045.03
2023-01-19T22:35:46.849Z,101045.56
2023-01-19T22:38:13.278Z,101053.03
2023-01-19T22:40:39.765Z,101052.47
2023-01-19T22:43:06.252Z,101050.59
2023-01-19T22:45:32.703Z,101052.84
2023-01-19T22:47:59.270Z,101056.63
2023-01-19T22:50:25.685Z,101057.72
2023-01-19T22:52:55.577Z,101066.31
2023-01-19T22:55:22.034Z,101071.13
2023-01-19T22:57:48.498Z,101070.06
2023-01-19T23:00:15.394Z,101060.13
2023-01-19T23:02:41.874Z,101066.53
2023-01-19T23:05:08.425Z,101070.81
2023-01-19T23:07:34.979Z,101058.69
2023-01-19T23:10:01.428Z,101064.75
2023-01-19T23:12:27.856Z,101059.88
2023-01-19T23:14:54.302Z,101067.34
2023-01-19T23:17:20.786Z,101062.78
2023-01-19T23:19:47.292Z,101053.47
2023-01-19T23:22:13.787Z,101062.88
2023-01-19T23:24:40.324Z,101057.53
2023-01-19T23:27:06.809Z,101060.00
2023-01-19T23:29:33.301Z,101060.06
2023-01-19T23:31:59.899Z,101057.38
2023-01-19T23:34:26.470Z,101057.13
2023-01-19T23:36:52.942Z,101063.84
2023-01-19T23:39:21.633Z,101055.03
2023-01-19T23:41:49.157Z,101055.22
2023-01-19T23:44:17.017Z,101053.06
2023-01-19T23:46:44.016Z,101062.66
2023-01-19T23:49:10.843Z,101063.47
2023-01-19T23:51:39.079Z,101065.94
2023-01-19T23:54:05.587Z,101064.34
2023-01-19T23:56:34.292Z,101067.00
2023-01-19T23:59:03.620Z,101070.22
